Open Full Screen Window  High Contrast Mode
Wind Gusting 00 knots
06
February 13, 2016 10:07 AM EST
Weather Information
Wind Direction
  360 °
Wind Speed
  06 kt (7 mph)
Wind Gust
  00 kt (0 mph)
Altimeter
30.53 in
Visibility
10 SM
Temperature
-11° C
12° F
Dewpoint
-20° C
-3° F
Humidity
48%
1hr Rain Fall
00.00 in.
24hr Rain Fall
00.00 in.
Sky Condition
Clear
VFR

METAR KI69 131507Z AUTO 36006KT 10SM CLR M11/M20 A3053 RMK AO2 T11061199

*Background is not an actual portrayal of the airport.